sensor_id;sensor_type;location;lat;lon;timestamp;pressure;altitude;pressure_sealevel;temperature;humidity
81897;BME280;71360;43.506;1.500;2024-03-17T00:01:02;99390.16;;;11.39;72.14
81897;BME280;71360;43.506;1.500;2024-03-17T00:03:29;99392.03;;;11.37;72.06
81897;BME280;71360;43.506;1.500;2024-03-17T00:05:58;99395.59;;;11.37;71.82
81897;BME280;71360;43.506;1.500;2024-03-17T00:08:24;99391.25;;;11.35;71.93
81897;BME280;71360;43.506;1.500;2024-03-17T00:10:51;99397.38;;;11.37;71.85
81897;BME280;71360;43.506;1.500;2024-03-17T00:13:17;99394.69;;;11.37;72.19
81897;BME280;71360;43.506;1.500;2024-03-17T00:15:42;99388.59;;;11.35;72.22
81897;BME280;71360;43.506;1.500;2024-03-17T00:18:08;99395.66;;;11.36;71.73
81897;BME280;71360;43.506;1.500;2024-03-17T00:20:36;99380.47;;;11.36;72.21
81897;BME280;71360;43.506;1.500;2024-03-17T00:23:02;99379.53;;;11.37;72.32
81897;BME280;71360;43.506;1.500;2024-03-17T00:25:27;99370.47;;;11.40;72.26
81897;BME280;71360;43.506;1.500;2024-03-17T00:27:53;99378.44;;;11.41;72.71
81897;BME280;71360;43.506;1.500;2024-03-17T00:30:20;99370.22;;;11.44;72.51
81897;BME280;71360;43.506;1.500;2024-03-17T00:32:46;99366.53;;;11.47;72.58
81897;BME280;71360;43.506;1.500;2024-03-17T00:35:12;99361.91;;;11.51;72.52
81897;BME280;71360;43.506;1.500;2024-03-17T00:37:42;99359.13;;;11.52;72.39
81897;BME280;71360;43.506;1.500;2024-03-17T00:40:07;99351.88;;;11.54;72.58
81897;BME280;71360;43.506;1.500;2024-03-17T00:42:33;99350.94;;;11.55;72.23
81897;BME280;71360;43.506;1.500;2024-03-17T00:44:59;99348.25;;;11.55;72.43
81897;BME280;71360;43.506;1.500;2024-03-17T00:47:28;99350.06;;;11.55;72.20
81897;BME280;71360;43.506;1.500;2024-03-17T00:49:54;99343.84;;;11.54;72.61
81897;BME280;71360;43.506;1.500;2024-03-17T00:52:20;99342.19;;;11.52;72.65
81897;BME280;71360;43.506;1.500;2024-03-17T00:54:48;99350.13;;;11.53;72.74
81897;BME280;71360;43.506;1.500;2024-03-17T00:57:14;99348.44;;;11.52;72.63
81897;BME280;71360;43.506;1.500;2024-03-17T00:59:41;99336.84;;;11.52;72.84
81897;BME280;71360;43.506;1.500;2024-03-17T01:02:10;99338.56;;;11.53;72.51
81897;BME280;71360;43.506;1.500;2024-03-17T01:04:37;99334.97;;;11.54;72.96
81897;BME280;71360;43.506;1.500;2024-03-17T01:07:03;99337.56;;;11.55;72.79
81897;BME280;71360;43.506;1.500;2024-03-17T01:09:29;99340.06;;;11.58;73.03
81897;BME280;71360;43.506;1.500;2024-03-17T01:11:55;99330.16;;;11.60;72.88
81897;BME280;71360;43.506;1.500;2024-03-17T01:14:21;99330.91;;;11.62;73.11
81897;BME280;71360;43.506;1.500;2024-03-17T01:16:46;99327.38;;;11.62;72.79
81897;BME280;71360;43.506;1.500;2024-03-17T01:19:12;99322.75;;;11.65;72.96
81897;BME280;71360;43.506;1.500;2024-03-17T01:21:37;99307.53;;;11.66;72.96
81897;BME280;71360;43.506;1.500;2024-03-17T01:24:03;99299.41;;;11.68;72.63
81897;BME280;71360;43.506;1.500;2024-03-17T01:26:28;99297.66;;;11.66;72.91
81897;BME280;71360;43.506;1.500;2024-03-17T01:28:54;99306.69;;;11.65;72.65
81897;BME280;71360;43.506;1.500;2024-03-17T01:31:19;99314.75;;;11.64;72.44
81897;BME280;71360;43.506;1.500;2024-03-17T01:33:45;99316.69;;;11.62;73.02
81897;BME280;71360;43.506;1.500;2024-03-17T01:36:12;99315.28;;;11.55;72.98
81897;BME280;71360;43.506;1.500;2024-03-17T01:38:37;99304.03;;;11.48;72.92
81897;BME280;71360;43.506;1.500;2024-03-17T01:41:03;99297.97;;;11.44;72.87
81897;BME280;71360;43.506;1.500;2024-03-17T01:43:30;99296.50;;;11.39;73.34
81897;BME280;71360;43.506;1.500;2024-03-17T01:45:56;99293.09;;;11.35;72.96
81897;BME280;71360;43.506;1.500;2024-03-17T01:48:23;99298.72;;;11.30;73.14
81897;BME280;71360;43.506;1.500;2024-03-17T01:50:52;99304.38;;;11.24;72.73
81897;BME280;71360;43.506;1.500;2024-03-17T01:53:18;99312.56;;;11.21;72.94
81897;BME280;71360;43.506;1.500;2024-03-17T01:55:47;99309.25;;;11.16;72.78
81897;BME280;71360;43.506;1.500;2024-03-17T01:58:12;99305.94;;;11.11;73.02
81897;BME280;71360;43.506;1.500;2024-03-17T02:00:39;99309.88;;;11.04;72.98
81897;BME280;71360;43.506;1.500;2024-03-17T02:03:05;99297.78;;;10.96;72.93
81897;BME280;71360;43.506;1.500;2024-03-17T02:05:32;99291.88;;;10.90;73.22
81897;BME280;71360;43.506;1.500;2024-03-17T02:07:59;99290.41;;;10.84;73.33
81897;BME280;71360;43.506;1.500;2024-03-17T02:10:25;99289.75;;;10.79;73.59
81897;BME280;71360;43.506;1.500;2024-03-17T02:12:51;99290.94;;;10.73;73.37
81897;BME280;71360;43.506;1.500;2024-03-17T02:15:17;99290.22;;;10.70;73.34
81897;BME280;71360;43.506;1.500;2024-03-17T02:17:43;99283.22;;;10.67;73.80
81897;BME280;71360;43.506;1.500;2024-03-17T02:20:09;99271.66;;;10.67;73.57
81897;BME280;71360;43.506;1.500;2024-03-17T02:22:37;99262.94;;;10.63;73.59
81897;BME280;71360;43.506;1.500;2024-03-17T02:25:03;99265.50;;;10.64;73.76
81897;BME280;71360;43.506;1.500;2024-03-17T02:27:29;99263.72;;;10.65;74.23
81897;BME280;71360;43.506;1.500;2024-03-17T02:29:55;99261.81;;;10.67;74.49
81897;BME280;71360;43.506;1.500;2024-03-17T02:32:21;99257.28;;;10.69;74.19
81897;BME280;71360;43.506;1.500;2024-03-17T02:34:48;99250.91;;;10.72;73.89
81897;BME280;71360;43.506;1.500;2024-03-17T02:37:13;99243.66;;;10.74;74.10
81897;BME280;71360;43.506;1.500;2024-03-17T02:39:39;99237.31;;;10.76;74.06
81897;BME280;71360;43.506;1.500;2024-03-17T02:42:07;99230.84;;;10.80;74.12
81897;BME280;71360;43.506;1.500;2024-03-17T02:44:33;99227.00;;;10.86;74.09
81897;BME280;71360;43.506;1.500;2024-03-17T02:47:00;99216.00;;;10.92;74.15
81897;BME280;71360;43.506;1.500;2024-03-17T02:49:27;99222.91;;;10.96;73.79
81897;BME280;71360;43.506;1.500;2024-03-17T02:51:56;99225.25;;;11.03;74.19
81897;BME280;71360;43.506;1.500;2024-03-17T02:54:22;99236.56;;;11.08;73.94
81897;BME280;71360;43.506;1.500;2024-03-17T02:56:50;99240.72;;;11.13;74.00
81897;BME280;71360;43.506;1.500;2024-03-17T02:59:16;99233.31;;;11.19;73.43
81897;BME280;71360;43.506;1.500;2024-03-17T03:01:42;99237.47;;;11.24;73.94
81897;BME280;71360;43.506;1.500;2024-03-17T03:04:08;99241.59;;;11.31;73.58
81897;BME280;71360;43.506;1.500;2024-03-17T03:06:34;99244.78;;;11.38;73.33
81897;BME280;71360;43.506;1.500;2024-03-17T03:08:59;99246.28;;;11.44;73.04
81897;BME280;71360;43.506;1.500;2024-03-17T03:11:25;99238.84;;;11.49;73.14
81897;BME280;71360;43.506;1.500;2024-03-17T03:14:13;99238.59;;;11.54;72.74
81897;BME280;71360;43.506;1.500;2024-03-17T03:16:39;99240.16;;;11.58;73.04
81897;BME280;71360;43.506;1.500;2024-03-17T03:19:05;99232.84;;;11.61;73.38
81897;BME280;71360;43.506;1.500;2024-03-17T03:21:31;99235.25;;;11.66;72.91
81897;BME280;71360;43.506;1.500;2024-03-17T03:23:56;99246.66;;;11.70;72.86
81897;BME280;71360;43.506;1.500;2024-03-17T03:26:22;99243.72;;;11.74;72.36
81897;BME280;71360;43.506;1.500;2024-03-17T03:28:48;99235.41;;;11.79;72.60
81897;BME280;71360;43.506;1.500;2024-03-17T03:31:14;99234.38;;;11.81;72.29
81897;BME280;71360;43.506;1.500;2024-03-17T03:33:40;99232.41;;;11.85;72.19
81897;BME280;71360;43.506;1.500;2024-03-17T03:36:10;99242.00;;;11.89;71.79
81897;BME280;71360;43.506;1.500;2024-03-17T03:38:36;99234.66;;;11.93;71.63
81897;BME280;71360;43.506;1.500;2024-03-17T03:41:09;99234.53;;;11.96;71.52
81897;BME280;71360;43.506;1.500;2024-03-17T03:43:35;99225.53;;;11.97;71.50
81897;BME280;71360;43.506;1.500;2024-03-17T03:46:02;99231.75;;;11.97;71.42
81897;BME280;71360;43.506;1.500;2024-03-17T03:48:28;99235.13;;;12.01;71.55
81897;BME280;71360;43.506;1.500;2024-03-17T03:50:54;99235.03;;;12.03;71.39
81897;BME280;71360;43.506;1.500;2024-03-17T03:53:22;99235.75;;;12.06;71.10
81897;BME280;71360;43.506;1.500;2024-03-17T03:55:48;99245.38;;;12.09;71.01
81897;BME280;71360;43.506;1.500;2024-03-17T03:58:14;99242.56;;;12.12;70.91
81897;BME280;71360;43.506;1.500;2024-03-17T04:00:40;99238.91;;;12.13;70.90
81897;BME280;71360;43.506;1.500;2024-03-17T04:03:05;99245.06;;;12.15;70.72
81897;BME280;71360;43.506;1.500;2024-03-17T04:05:31;99235.09;;;12.17;70.89
81897;BME280;71360;43.506;1.500;2024-03-17T04:07:57;99229.59;;;12.20;70.57
81897;BME280;71360;43.506;1.500;2024-03-17T04:10:23;99232.94;;;12.24;70.29
81897;BME280;71360;43.506;1.500;2024-03-17T04:12:50;99218.50;;;12.26;70.02
81897;BME280;71360;43.506;1.500;2024-03-17T04:15:16;99229.13;;;12.28;69.73
81897;BME280;71360;43.506;1.500;2024-03-17T04:17:42;99220.84;;;12.32;69.68
81897;BME280;71360;43.506;1.500;2024-03-17T04:20:08;99225.16;;;12.35;69.67
81897;BME280;71360;43.506;1.500;2024-03-17T04:22:34;99237.59;;;12.36;69.58
81897;BME280;71360;43.506;1.500;2024-03-17T04:25:00;99231.19;;;12.39;69.41
81897;BME280;71360;43.506;1.500;2024-03-17T04:27:26;99225.81;;;12.39;69.63
81897;BME280;71360;43.506;1.500;2024-03-17T04:29:53;99223.09;;;12.40;68.92
81897;BME280;71360;43.506;1.500;2024-03-17T04:32:20;99226.53;;;12.42;69.26
81897;BME280;71360;43.506;1.500;2024-03-17T04:34:45;99231.88;;;12.42;68.92
81897;BME280;71360;43.506;1.500;2024-03-17T04:37:11;99220.13;;;12.45;69.18
81897;BME280;71360;43.506;1.500;2024-03-17T04:39:41;99227.31;;;12.44;68.89
81897;BME280;71360;43.506;1.500;2024-03-17T04:42:09;99226.22;;;12.47;68.47
81897;BME280;71360;43.506;1.500;2024-03-17T04:44:34;99217.34;;;12.46;68.60
81897;BME280;71360;43.506;1.500;2024-03-17T04:47:01;99219.16;;;12.46;68.62
81897;BME280;71360;43.506;1.500;2024-03-17T04:49:27;99213.03;;;12.44;68.22
81897;BME280;71360;43.506;1.500;2024-03-17T04:51:53;99219.25;;;12.44;68.31
81897;BME280;71360;43.506;1.500;2024-03-17T04:54:18;99233.72;;;12.42;68.47
81897;BME280;71360;43.506;1.500;2024-03-17T04:56:44;99241.91;;;12.39;68.52
81897;BME280;71360;43.506;1.500;2024-03-17T04:59:09;99249.19;;;12.37;68.61
81897;BME280;71360;43.506;1.500;2024-03-17T05:01:35;99258.34;;;12.32;68.51
81897;BME280;71360;43.506;1.500;2024-03-17T05:04:04;99266.63;;;12.28;68.25
81897;BME280;71360;43.506;1.500;2024-03-17T05:06:30;99268.75;;;12.23;68.54
81897;BME280;71360;43.506;1.500;2024-03-17T05:08:56;99273.59;;;12.16;68.73
81897;BME280;71360;43.506;1.500;2024-03-17T05:11:21;99275.66;;;12.11;68.47
81897;BME280;71360;43.506;1.500;2024-03-17T05:13:49;99280.41;;;12.06;68.47
81897;BME280;71360;43.506;1.500;2024-03-17T05:16:15;99279.78;;;12.01;68.93
81897;BME280;71360;43.506;1.500;2024-03-17T05:18:41;99284.59;;;11.94;68.68
81897;BME280;71360;43.506;1.500;2024-03-17T05:21:07;99297.47;;;11.87;68.78
81897;BME280;71360;43.506;1.500;2024-03-17T05:23:36;99296.84;;;11.82;69.10
81897;BME280;71360;43.506;1.500;2024-03-17T05:26:03;99298.13;;;11.75;68.52
81897;BME280;71360;43.506;1.500;2024-03-17T05:28:32;99299.31;;;11.69;69.13
81897;BME280;71360;43.506;1.500;2024-03-17T05:30:58;99292.50;;;11.63;69.29
81897;BME280;71360;43.506;1.500;2024-03-17T05:33:25;99295.34;;;11.60;68.64
81897;BME280;71360;43.506;1.500;2024-03-17T05:35:52;99289.38;;;11.55;68.84
81897;BME280;71360;43.506;1.500;2024-03-17T05:38:22;99296.59;;;11.53;68.89
81897;BME280;71360;43.506;1.500;2024-03-17T05:40:58;99303.94;;;11.49;69.26
81897;BME280;71360;43.506;1.500;2024-03-17T05:43:32;99306.81;;;11.46;69.14
81897;BME280;71360;43.506;1.500;2024-03-17T05:46:11;99313.25;;;11.42;69.29
81897;BME280;71360;43.506;1.500;2024-03-17T05:48:41;99309.78;;;11.40;69.06
81897;BME280;71360;43.506;1.500;2024-03-17T05:51:08;99308.13;;;11.38;69.33
81897;BME280;71360;43.506;1.500;2024-03-17T05:53:34;99314.44;;;11.37;69.06
81897;BME280;71360;43.506;1.500;2024-03-17T05:56:01;99315.41;;;11.36;69.06
81897;BME280;71360;43.506;1.500;2024-03-17T05:58:27;99320.75;;;11.36;69.02
81897;BME280;71360;43.506;1.500;2024-03-17T06:00:52;99325.22;;;11.35;69.45
81897;BME280;71360;43.506;1.500;2024-03-17T06:03:18;99318.84;;;11.38;69.02
81897;BME280;71360;43.506;1.500;2024-03-17T06:05:44;99333.88;;;11.40;68.91
81897;BME280;71360;43.506;1.500;2024-03-17T06:08:13;99332.94;;;11.41;69.05
81897;BME280;71360;43.506;1.500;2024-03-17T06:10:44;99320.22;;;11.45;68.73
81897;BME280;71360;43.506;1.500;2024-03-17T06:13:10;99324.47;;;11.49;69.36
81897;BME280;71360;43.506;1.500;2024-03-17T06:15:39;99314.56;;;11.51;69.15
81897;BME280;71360;43.506;1.500;2024-03-17T06:18:05;99327.66;;;11.57;68.93
81897;BME280;71360;43.506;1.500;2024-03-17T06:20:34;99325.56;;;11.62;68.94
81897;BME280;71360;43.506;1.500;2024-03-17T06:23:00;99326.19;;;11.68;68.62
81897;BME280;71360;43.506;1.500;2024-03-17T06:25:25;99324.91;;;11.75;69.10
81897;BME280;71360;43.506;1.500;2024-03-17T06:27:51;99331.59;;;11.83;68.83
81897;BME280;71360;43.506;1.500;2024-03-17T06:30:17;99325.88;;;11.90;68.31
81897;BME280;71360;43.506;1.500;2024-03-17T06:32:44;99320.94;;;11.99;68.35
81897;BME280;71360;43.506;1.500;2024-03-17T06:35:14;99310.47;;;12.11;68.14
81897;BME280;71360;43.506;1.500;2024-03-17T06:37:41;99318.00;;;12.20;67.77
81897;BME280;71360;43.506;1.500;2024-03-17T06:40:10;99327.25;;;12.30;67.89
81897;BME280;71360;43.506;1.500;2024-03-17T06:42:38;99322.16;;;12.42;67.73
81897;BME280;71360;43.506;1.500;2024-03-17T06:45:05;99318.94;;;12.51;67.46
81897;BME280;71360;43.506;1.500;2024-03-17T06:47:30;99316.59;;;12.61;67.25
81897;BME280;71360;43.506;1.500;2024-03-17T06:49:56;99317.78;;;12.71;67.19
81897;BME280;71360;43.506;1.500;2024-03-17T06:52:21;99309.22;;;12.80;67.18
81897;BME280;71360;43.506;1.500;2024-03-17T06:54:47;99294.41;;;12.89;66.53
81897;BME280;71360;43.506;1.500;2024-03-17T06:57:16;99298.44;;;12.96;66.59
81897;BME280;71360;43.506;1.500;2024-03-17T06:59:42;99303.34;;;13.04;66.54
81897;BME280;71360;43.506;1.500;2024-03-17T07:02:07;99295.78;;;13.11;65.83
81897;BME280;71360;43.506;1.500;2024-03-17T07:04:36;99306.16;;;13.17;66.04
81897;BME280;71360;43.506;1.500;2024-03-17T07:07:02;99301.38;;;13.22;65.58
81897;BME280;71360;43.506;1.500;2024-03-17T07:09:27;99301.09;;;13.27;65.56
81897;BME280;71360;43.506;1.500;2024-03-17T07:11:53;99307.91;;;13.32;65.06
81897;BME280;71360;43.506;1.500;2024-03-17T07:14:18;99304.09;;;13.37;64.87
81897;BME280;71360;43.506;1.500;2024-03-17T07:16:44;99311.09;;;13.39;65.30
81897;BME280;71360;43.506;1.500;2024-03-17T07:19:09;99317.16;;;13.43;64.58
81897;BME280;71360;43.506;1.500;2024-03-17T07:21:35;99321.38;;;13.47;65.02
81897;BME280;71360;43.506;1.500;2024-03-17T07:24:00;99329.16;;;13.51;64.75
81897;BME280;71360;43.506;1.500;2024-03-17T07:26:30;99329.72;;;13.57;64.83
81897;BME280;71360;43.506;1.500;2024-03-17T07:28:56;99341.06;;;13.62;64.73
81897;BME280;71360;43.506;1.500;2024-03-17T07:31:21;99334.44;;;13.67;64.64
81897;BME280;71360;43.506;1.500;2024-03-17T07:33:47;99331.50;;;13.72;64.38
81897;BME280;71360;43.506;1.500;2024-03-17T07:36:13;99335.63;;;13.78;64.64
81897;BME280;71360;43.506;1.500;2024-03-17T07:38:38;99331.56;;;13.85;64.07
81897;BME280;71360;43.506;1.500;2024-03-17T07:41:08;99329.28;;;13.93;63.81
81897;BME280;71360;43.506;1.500;2024-03-17T07:43:35;99320.72;;;14.01;63.57
81897;BME280;71360;43.506;1.500;2024-03-17T07:46:06;99320.31;;;14.07;63.77
81897;BME280;71360;43.506;1.500;2024-03-17T07:48:36;99321.56;;;14.16;63.49
81897;BME280;71360;43.506;1.500;2024-03-17T07:51:07;99328.28;;;14.23;63.75
81897;BME280;71360;43.506;1.500;2024-03-17T07:53:34;99335.84;;;14.31;62.87
81897;BME280;71360;43.506;1.500;2024-03-17T07:56:06;99341.72;;;14.38;62.79
81897;BME280;71360;43.506;1.500;2024-03-17T07:58:33;99351.09;;;14.45;62.80
81897;BME280;71360;43.506;1.500;2024-03-17T08:01:06;99344.34;;;14.52;62.79
81897;BME280;71360;43.506;1.500;2024-03-17T08:03:37;99350.97;;;14.61;62.89
81897;BME280;71360;43.506;1.500;2024-03-17T08:06:04;99346.06;;;14.67;62.34
81897;BME280;71360;43.506;1.500;2024-03-17T08:08:31;99347.38;;;14.75;62.38
81897;BME280;71360;43.506;1.500;2024-03-17T08:10:57;99345.91;;;14.83;62.00
81897;BME280;71360;43.506;1.500;2024-03-17T08:13:24;99354.88;;;14.97;61.77
81897;BME280;71360;43.506;1.500;2024-03-17T08:15:57;99347.38;;;15.15;61.52
81897;BME280;71360;43.506;1.500;2024-03-17T08:18:24;99349.06;;;15.30;61.60
81897;BME280;71360;43.506;1.500;2024-03-17T08:20:49;99348.44;;;15.52;61.43
81897;BME280;71360;43.506;1.500;2024-03-17T08:23:15;99362.25;;;15.74;61.28
81897;BME280;71360;43.506;1.500;2024-03-17T08:25:40;99367.34;;;15.91;60.46
81897;BME280;71360;43.506;1.500;2024-03-17T08:28:06;99360.00;;;16.06;60.42
81897;BME280;71360;43.506;1.500;2024-03-17T08:30:34;99368.91;;;16.19;59.77
81897;BME280;71360;43.506;1.500;2024-03-17T08:33:01;99370.84;;;16.30;59.69
81897;BME280;71360;43.506;1.500;2024-03-17T08:35:26;99364.78;;;16.40;59.51
81897;BME280;71360;43.506;1.500;2024-03-17T08:37:52;99359.69;;;16.48;59.00
81897;BME280;71360;43.506;1.500;2024-03-17T08:40:21;99364.53;;;16.56;58.43
81897;BME280;71360;43.506;1.500;2024-03-17T08:42:48;99366.88;;;16.60;58.27
81897;BME280;71360;43.506;1.500;2024-03-17T08:45:13;99375.25;;;16.68;58.48
81897;BME280;71360;43.506;1.500;2024-03-17T08:47:39;99381.94;;;16.76;57.95
81897;BME280;71360;43.506;1.500;2024-03-17T08:50:05;99372.41;;;16.83;57.96
81897;BME280;71360;43.506;1.500;2024-03-17T08:52:36;99379.63;;;16.95;57.63
81897;BME280;71360;43.506;1.500;2024-03-17T08:55:01;99362.88;;;17.03;57.64
81897;BME280;71360;43.506;1.500;2024-03-17T08:57:35;99364.00;;;17.12;57.70
81897;BME280;71360;43.506;1.500;2024-03-17T09:00:00;99361.56;;;17.20;57.37
81897;BME280;71360;43.506;1.500;2024-03-17T09:02:26;99361.97;;;17.27;57.06
81897;BME280;71360;43.506;1.500;2024-03-17T09:04:51;99363.22;;;17.34;57.21
81897;BME280;71360;43.506;1.500;2024-03-17T09:07:17;99372.56;;;17.41;56.83
81897;BME280;71360;43.506;1.500;2024-03-17T09:09:43;99360.44;;;17.47;56.94
81897;BME280;71360;43.506;1.500;2024-03-17T09:12:09;99367.84;;;17.56;56.42
81897;BME280;71360;43.506;1.500;2024-03-17T09:14:35;99368.09;;;17.64;56.84
81897;BME280;71360;43.506;1.500;2024-03-17T09:17:01;99371.78;;;17.75;56.38
81897;BME280;71360;43.506;1.500;2024-03-17T09:19:26;99372.16;;;17.81;56.58
81897;BME280;71360;43.506;1.500;2024-03-17T09:21:55;99367.88;;;17.90;56.28
81897;BME280;71360;43.506;1.500;2024-03-17T09:24:21;99370.88;;;17.98;55.83
81897;BME280;71360;43.506;1.500;2024-03-17T09:26:46;99373.06;;;18.04;55.77
81897;BME280;71360;43.506;1.500;2024-03-17T09:29:13;99363.50;;;18.12;56.05
81897;BME280;71360;43.506;1.500;2024-03-17T09:31:41;99361.31;;;18.17;55.67
81897;BME280;71360;43.506;1.500;2024-03-17T09:34:07;99360.66;;;18.25;55.75
81897;BME280;71360;43.506;1.500;2024-03-17T09:36:33;99349.38;;;18.31;55.55
81897;BME280;71360;43.506;1.500;2024-03-17T09:38:58;99356.84;;;18.38;55.15
81897;BME280;71360;43.506;1.500;2024-03-17T09:41:26;99356.09;;;18.48;55.17
81897;BME280;71360;43.506;1.500;2024-03-17T09:43:56;99348.34;;;18.54;54.76
81897;BME280;71360;43.506;1.500;2024-03-17T09:46:23;99353.97;;;18.63;55.33
81897;BME280;71360;43.506;1.500;2024-03-17T09:48:49;99335.50;;;18.68;55.04
81897;BME280;71360;43.506;1.500;2024-03-17T09:51:20;99339.28;;;18.77;55.07
81897;BME280;71360;43.506;1.500;2024-03-17T09:53:47;99342.47;;;18.82;55.04
81897;BME280;71360;43.506;1.500;2024-03-17T09:56:14;99347.44;;;18.88;54.73
81897;BME280;71360;43.506;1.500;2024-03-17T09:58:51;99350.63;;;18.93;54.31
81897;BME280;71360;43.506;1.500;2024-03-17T10:01:17;99360.94;;;18.99;54.66
81897;BME280;71360;43.506;1.500;2024-03-17T10:03:49;99363.97;;;19.06;54.63
81897;BME280;71360;43.506;1.500;2024-03-17T10:06:22;99365.44;;;19.10;54.58
81897;BME280;71360;43.506;1.500;2024-03-17T10:08:50;99364.19;;;19.14;54.34
81897;BME280;71360;43.506;1.500;2024-03-17T10:11:17;99366.25;;;19.22;54.83
81897;BME280;71360;43.506;1.500;2024-03-17T10:13:44;99368.34;;;19.30;54.65
81897;BME280;71360;43.506;1.500;2024-03-17T10:16:26;99358.81;;;19.35;54.19
81897;BME280;71360;43.506;1.500;2024-03-17T10:19:10;99365.56;;;19.41;53.69
81897;BME280;71360;43.506;1.500;2024-03-17T10:21:37;99361.31;;;19.48;54.11
81897;BME280;71360;43.506;1.500;2024-03-17T10:26:41;99365.44;;;19.64;53.98
81897;BME280;71360;43.506;1.500;2024-03-17T10:29:24;99370.91;;;19.73;54.13
81897;BME280;71360;43.506;1.500;2024-03-17T10:31:56;99371.84;;;19.84;54.23
81897;BME280;71360;43.506;1.500;2024-03-17T10:34:24;99370.19;;;19.93;53.71
81897;BME280;71360;43.506;1.500;2024-03-17T10:37:10;99374.81;;;20.02;53.48
81897;BME280;71360;43.506;1.500;2024-03-17T10:39:37;99375.13;;;20.08;53.41
81897;BME280;71360;43.506;1.500;2024-03-17T10:42:04;99364.47;;;20.17;53.13
81897;BME280;71360;43.506;1.500;2024-03-17T10:44:38;99362.78;;;20.26;53.08
81897;BME280;71360;43.506;1.500;2024-03-17T10:47:05;99358.50;;;20.33;53.09
81897;BME280;71360;43.506;1.500;2024-03-17T10:49:38;99353.25;;;20.41;52.87
81897;BME280;71360;43.506;1.500;2024-03-17T10:52:16;99362.97;;;20.44;52.31
81897;BME280;71360;43.506;1.500;2024-03-17T10:54:53;99376.56;;;20.44;52.54
81897;BME280;71360;43.506;1.500;2024-03-17T10:57:27;99387.16;;;20.47;52.78
81897;BME280;71360;43.506;1.500;2024-03-17T10:59:57;99387.59;;;20.52;52.16
81897;BME280;71360;43.506;1.500;2024-03-17T11:02:26;99388.78;;;20.59;52.00
81897;BME280;71360;43.506;1.500;2024-03-17T11:05:25;99383.66;;;20.66;51.91
81897;BME280;71360;43.506;1.500;2024-03-17T11:07:55;99385.97;;;20.70;52.03
81897;BME280;71360;43.506;1.500;2024-03-17T11:10:28;99381.69;;;20.78;52.77
81897;BME280;71360;43.506;1.500;2024-03-17T11:12:57;99382.88;;;20.85;52.48
81897;BME280;71360;43.506;1.500;2024-03-17T11:18:27;99380.44;;;21.01;52.92
81897;BME280;71360;43.506;1.500;2024-03-17T11:20:58;99378.59;;;21.12;52.73
81897;BME280;71360;43.506;1.500;2024-03-17T11:23:30;99380.47;;;21.21;52.55
81897;BME280;71360;43.506;1.500;2024-03-17T11:25:57;99376.03;;;21.30;52.75
81897;BME280;71360;43.506;1.500;2024-03-17T11:34:03;99371.44;;;21.50;51.94
81897;BME280;71360;43.506;1.500;2024-03-17T11:36:33;99361.44;;;21.60;51.85
81897;BME280;71360;43.506;1.500;2024-03-17T11:38:59;99343.53;;;21.67;51.67
81897;BME280;71360;43.506;1.500;2024-03-17T11:41:41;99344.38;;;21.78;51.13
81897;BME280;71360;43.506;1.500;2024-03-17T11:46:59;99340.47;;;21.90;51.27
81897;BME280;71360;43.506;1.500;2024-03-17T11:49:32;99337.88;;;21.98;50.91
81897;BME280;71360;43.506;1.500;2024-03-17T11:52:02;99345.84;;;22.09;50.38
81897;BME280;71360;43.506;1.500;2024-03-17T11:54:32;99351.38;;;22.18;49.92
81897;BME280;71360;43.506;1.500;2024-03-17T11:59:28;99340.00;;;22.32;49.78
81897;BME280;71360;43.506;1.500;2024-03-17T12:01:54;99327.38;;;22.41;50.02
81897;BME280;71360;43.506;1.500;2024-03-17T12:04:21;99325.63;;;22.50;50.09
81897;BME280;71360;43.506;1.500;2024-03-17T12:06:49;99315.50;;;22.60;49.33
81897;BME280;71360;43.506;1.500;2024-03-17T12:12:03;99304.41;;;22.71;49.12
81897;BME280;71360;43.506;1.500;2024-03-17T12:14:29;99284.19;;;22.74;49.06
81897;BME280;71360;43.506;1.500;2024-03-17T12:16:57;99282.72;;;22.80;49.38
81897;BME280;71360;43.506;1.500;2024-03-17T12:19:24;99279.06;;;22.89;49.26
81897;BME280;71360;43.506;1.500;2024-03-17T12:21:53;99276.41;;;22.97;49.32
81897;BME280;71360;43.506;1.500;2024-03-17T12:24:25;99273.59;;;23.07;49.64
81897;BME280;71360;43.506;1.500;2024-03-17T12:26:54;99265.66;;;23.14;49.44
81897;BME280;71360;43.506;1.500;2024-03-17T12:29:36;99268.28;;;23.23;49.04
81897;BME280;71360;43.506;1.500;2024-03-17T12:32:10;99267.81;;;23.28;48.48
81897;BME280;71360;43.506;1.500;2024-03-17T12:34:37;99267.03;;;23.36;48.14
81897;BME280;71360;43.506;1.500;2024-03-17T12:37:04;99270.81;;;23.43;48.58
81897;BME280;71360;43.506;1.500;2024-03-17T12:39:31;99260.84;;;23.52;47.48
81897;BME280;71360;43.506;1.500;2024-03-17T12:44:31;99254.66;;;23.50;46.16
81897;BME280;71360;43.506;1.500;2024-03-17T12:47:04;99246.19;;;23.53;47.05
81897;BME280;71360;43.506;1.500;2024-03-17T12:49:31;99246.41;;;23.59;46.52
81897;BME280;71360;43.506;1.500;2024-03-17T12:51:58;99251.53;;;23.63;45.56
81897;BME280;71360;43.506;1.500;2024-03-17T12:54:25;99238.75;;;23.71;45.77
81897;BME280;71360;43.506;1.500;2024-03-17T12:56:53;99231.81;;;23.77;45.65
81897;BME280;71360;43.506;1.500;2024-03-17T12:59:47;99230.53;;;23.89;45.33
81897;BME280;71360;43.506;1.500;2024-03-17T13:02:21;99225.28;;;24.04;45.93
81897;BME280;71360;43.506;1.500;2024-03-17T13:05:10;99223.28;;;24.15;45.15
81897;BME280;71360;43.506;1.500;2024-03-17T13:07:36;99218.38;;;24.18;45.72
81897;BME280;71360;43.506;1.500;2024-03-17T13:10:01;99205.94;;;24.24;45.61
81897;BME280;71360;43.506;1.500;2024-03-17T13:12:28;99211.38;;;24.24;45.02
81897;BME280;71360;43.506;1.500;2024-03-17T13:14:53;99211.19;;;24.17;44.47
81897;BME280;71360;43.506;1.500;2024-03-17T13:17:19;99203.69;;;24.19;43.39
81897;BME280;71360;43.506;1.500;2024-03-17T13:19:45;99196.38;;;24.28;43.78
81897;BME280;71360;43.506;1.500;2024-03-17T13:22:12;99193.50;;;24.38;44.00
81897;BME280;71360;43.506;1.500;2024-03-17T13:24:38;99194.19;;;24.48;43.83